createdAt,value
2018-09-29T00:01:07.681Z,21.80
2018-09-29T00:03:35.913Z,21.80
2018-09-29T00:06:04.162Z,21.80
2018-09-29T00:08:32.892Z,21.80
2018-09-29T00:11:01.150Z,21.80
2018-09-29T00:13:29.659Z,21.80
2018-09-29T00:15:58.627Z,21.80
2018-09-29T00:18:26.935Z,21.80
2018-09-29T00:20:55.182Z,21.80
2018-09-29T00:23:23.495Z,21.70
2018-09-29T00:25:51.729Z,21.80
2018-09-29T00:28:19.987Z,21.70
2018-09-29T00:30:49.219Z,21.70
2018-09-29T00:33:17.523Z,21.70
2018-09-29T00:35:45.805Z,21.70
2018-09-29T00:38:14.804Z,21.70
2018-09-29T00:40:43.089Z,21.70
2018-09-29T00:43:11.389Z,21.70
2018-09-29T00:45:39.794Z,21.70
2018-09-29T00:48:08.050Z,21.70
2018-09-29T00:50:36.281Z,21.70
2018-09-29T00:53:04.735Z,21.70
2018-09-29T00:55:32.990Z,21.70
2018-09-29T00:58:01.240Z,21.70
2018-09-29T01:00:30.178Z,21.70
2018-09-29T01:02:58.443Z,21.70
2018-09-29T01:05:26.702Z,21.70
2018-09-29T01:07:55.118Z,21.70
2018-09-29T01:10:23.362Z,21.70
2018-09-29T01:12:51.618Z,21.70
2018-09-29T01:15:20.199Z,21.70
2018-09-29T01:17:48.430Z,21.70
2018-09-29T01:20:16.682Z,21.70
2018-09-29T01:22:45.487Z,21.70
2018-09-29T01:25:13.749Z,21.60
2018-09-29T01:27:42.010Z,21.60
2018-09-29T01:30:10.411Z,21.60
2018-09-29T01:32:38.627Z,21.60
2018-09-29T01:35:06.916Z,21.60
2018-09-29T01:37:35.454Z,21.60
2018-09-29T01:40:03.734Z,21.60
2018-09-29T01:42:31.968Z,21.60
2018-09-29T01:45:00.699Z,21.60
2018-09-29T01:47:28.936Z,21.60
2018-09-29T01:49:57.168Z,21.60
2018-09-29T01:52:25.841Z,21.60
2018-09-29T01:54:54.084Z,21.60
2018-09-29T01:57:22.386Z,21.60
2018-09-29T01:59:51.269Z,21.60
2018-09-29T02:02:21.950Z,21.60
2018-09-29T02:04:52.957Z,21.60
2018-09-29T02:07:21.273Z,21.60
2018-09-29T02:09:49.702Z,21.60
2018-09-29T02:12:18.513Z,21.60
2018-09-29T02:14:46.755Z,21.60
2018-09-29T02:17:15.004Z,21.60
2018-09-29T02:19:43.639Z,21.60
2018-09-29T02:22:11.861Z,21.60
2018-09-29T02:24:40.107Z,21.60
2018-09-29T02:27:08.671Z,21.60
2018-09-29T02:29:36.928Z,21.60
2018-09-29T02:32:05.165Z,21.60
2018-09-29T02:34:33.457Z,21.60
2018-09-29T02:37:01.930Z,21.60
2018-09-29T02:39:30.169Z,21.50
2018-09-29T02:41:58.445Z,21.50
2018-09-29T02:44:26.680Z,21.50
2018-09-29T02:46:54.914Z,21.60
2018-09-29T02:49:23.781Z,21.50
2018-09-29T02:51:52.126Z,21.50
2018-09-29T02:54:20.346Z,21.50
2018-09-29T02:56:48.622Z,21.50
2018-09-29T02:59:16.959Z,21.50
2018-09-29T03:01:45.190Z,21.50
2018-09-29T03:04:14.054Z,21.50
2018-09-29T03:06:43.083Z,21.50
2018-09-29T03:09:11.293Z,21.50
2018-09-29T03:11:39.815Z,21.50
2018-09-29T03:14:08.061Z,21.50
2018-09-29T03:16:36.290Z,21.50
2018-09-29T03:19:05.119Z,21.50
2018-09-29T03:21:33.307Z,21.50
2018-09-29T03:24:01.547Z,21.50
2018-09-29T03:26:30.812Z,21.50
2018-09-29T03:28:59.042Z,21.50
2018-09-29T03:31:27.285Z,21.50
2018-09-29T03:33:55.938Z,21.50
2018-09-29T03:36:24.179Z,21.50
2018-09-29T03:38:52.486Z,21.50
2018-09-29T03:41:21.182Z,21.50
2018-09-29T03:43:49.407Z,21.50
2018-09-29T03:46:17.709Z,21.50
2018-09-29T03:48:46.462Z,21.40
2018-09-29T03:51:14.929Z,21.40
2018-09-29T03:53:43.300Z,21.40
2018-09-29T03:56:11.966Z,21.50
2018-09-29T03:58:40.211Z,21.40
2018-09-29T04:01:08.422Z,21.40
2018-09-29T04:03:37.406Z,21.40
2018-09-29T04:06:05.689Z,21.40
2018-09-29T04:08:34.710Z,21.40
2018-09-29T04:11:03.879Z,21.40
2018-09-29T04:13:32.132Z,21.40
2018-09-29T04:16:00.388Z,21.40
2018-09-29T04:18:28.689Z,21.40
2018-09-29T04:20:57.025Z,21.40
2018-09-29T04:23:25.305Z,21.40
2018-09-29T04:25:54.003Z,21.40
2018-09-29T04:28:22.313Z,21.40
2018-09-29T04:30:50.544Z,21.40
2018-09-29T04:33:19.193Z,21.40
2018-09-29T04:35:47.417Z,21.40
2018-09-29T04:38:15.658Z,21.40
2018-09-29T04:40:44.224Z,21.40
2018-09-29T04:43:12.529Z,21.40
2018-09-29T04:45:40.775Z,21.40
2018-09-29T04:48:09.766Z,21.40
2018-09-29T04:50:38.071Z,21.30
2018-09-29T04:53:06.306Z,21.30
2018-09-29T04:55:35.839Z,21.30
2018-09-29T04:58:04.099Z,21.30
2018-09-29T05:00:32.359Z,21.30
2018-09-29T05:03:00.646Z,21.40
2018-09-29T05:05:30.384Z,21.30
2018-09-29T05:07:58.627Z,21.40
2018-09-29T05:10:27.335Z,21.30
2018-09-29T05:12:55.586Z,21.40
2018-09-29T05:15:23.830Z,21.40
2018-09-29T05:17:52.209Z,21.40
2018-09-29T05:20:20.470Z,21.40
2018-09-29T05:22:48.720Z,21.40
2018-09-29T05:25:17.694Z,21.50
2018-09-29T05:27:45.931Z,21.50
2018-09-29T05:30:14.250Z,21.50
2018-09-29T05:32:42.748Z,21.50
2018-09-29T05:35:10.993Z,21.50
2018-09-29T05:37:39.302Z,21.50
2018-09-29T05:40:07.888Z,21.50
2018-09-29T05:42:36.134Z,21.50
2018-09-29T05:45:04.412Z,21.50
2018-09-29T05:47:33.102Z,21.60
2018-09-29T05:50:01.555Z,21.60
2018-09-29T05:52:29.802Z,21.60
2018-09-29T05:54:58.079Z,21.60
2018-09-29T05:57:26.392Z,21.60
2018-09-29T05:59:54.666Z,21.60
2018-09-29T06:02:24.014Z,21.60
2018-09-29T06:04:52.347Z,21.60
2018-09-29T06:07:20.661Z,21.60
2018-09-29T06:09:49.668Z,21.60
2018-09-29T06:12:18.883Z,21.60
2018-09-29T06:14:47.163Z,21.60
2018-09-29T06:17:15.426Z,21.60
2018-09-29T06:19:43.943Z,21.60
2018-09-29T06:22:12.214Z,21.60
2018-09-29T06:24:40.454Z,21.60
2018-09-29T06:27:08.714Z,21.60
2018-09-29T06:29:37.414Z,21.60
2018-09-29T06:32:05.855Z,21.60
2018-09-29T06:34:34.098Z,21.60
2018-09-29T06:37:02.855Z,21.50
2018-09-29T06:39:31.167Z,21.60
2018-09-29T06:41:59.482Z,21.50
2018-09-29T06:44:28.206Z,21.50
2018-09-29T06:46:56.457Z,21.50
2018-09-29T06:49:24.695Z,21.50
2018-09-29T06:51:53.855Z,21.60
2018-09-29T06:54:22.233Z,21.60
2018-09-29T06:56:50.652Z,21.60
2018-09-29T06:59:18.966Z,21.70
2018-09-29T07:01:47.234Z,21.80
2018-09-29T07:04:15.504Z,21.80
2018-09-29T07:06:43.855Z,21.90
2018-09-29T07:09:13.087Z,22.00
2018-09-29T07:11:41.753Z,22.00
2018-09-29T07:14:11.313Z,22.00
2018-09-29T07:16:39.578Z,22.00
2018-09-29T07:19:07.893Z,22.00
2018-09-29T07:21:36.321Z,22.10
2018-09-29T07:24:04.599Z,22.10
2018-09-29T07:26:32.867Z,22.00
2018-09-29T07:29:01.491Z,22.10
2018-09-29T07:31:29.820Z,22.40
2018-09-29T07:33:58.038Z,22.60
2018-09-29T07:36:27.034Z,22.50
2018-09-29T07:38:55.303Z,22.50
2018-09-29T07:41:23.578Z,22.40
2018-09-29T07:43:52.481Z,22.30
2018-09-29T07:46:20.918Z,22.20
2018-09-29T07:48:49.191Z,22.20
2018-09-29T07:51:17.720Z,22.20
2018-09-29T07:53:45.980Z,22.10
2018-09-29T07:56:14.231Z,22.10
2018-09-29T07:58:44.498Z,22.00
2018-09-29T08:01:12.740Z,22.00
2018-09-29T08:03:43.123Z,22.00
2018-09-29T08:06:12.094Z,21.90
2018-09-29T08:08:40.534Z,21.90
2018-09-29T08:11:08.956Z,21.90
2018-09-29T08:13:37.749Z,22.00
2018-09-29T08:16:06.118Z,22.00
2018-09-29T08:18:34.363Z,21.90
2018-09-29T08:21:03.707Z,22.00
2018-09-29T08:23:32.055Z,22.00
2018-09-29T08:26:00.306Z,22.10
2018-09-29T08:28:28.803Z,22.10
2018-09-29T08:30:57.227Z,22.00
2018-09-29T08:33:25.474Z,22.00
2018-09-29T08:35:53.970Z,22.00
2018-09-29T08:38:22.252Z,22.00
2018-09-29T08:40:50.603Z,22.00
2018-09-29T08:43:19.842Z,22.00
2018-09-29T08:45:48.185Z,22.00
2018-09-29T08:48:16.475Z,22.00
2018-09-29T08:50:44.963Z,22.00
2018-09-29T08:53:13.225Z,22.00
2018-09-29T08:55:41.788Z,22.00
2018-09-29T08:58:10.502Z,22.00
2018-09-29T09:00:39.045Z,22.00
2018-09-29T09:03:07.311Z,22.00
2018-09-29T09:05:36.573Z,22.00
2018-09-29T09:08:04.843Z,22.00
2018-09-29T09:10:33.231Z,22.00
2018-09-29T09:13:01.530Z,22.00
2018-09-29T09:15:29.802Z,22.00
2018-09-29T09:17:58.114Z,22.00
2018-09-29T09:20:27.005Z,22.00
2018-09-29T09:22:55.504Z,22.00
2018-09-29T09:25:23.847Z,22.00
2018-09-29T09:27:52.811Z,22.00
2018-09-29T09:30:21.118Z,22.00
2018-09-29T09:32:49.334Z,22.00
2018-09-29T09:35:18.057Z,22.00
2018-09-29T09:37:46.756Z,22.00
2018-09-29T09:40:15.463Z,22.00
2018-09-29T09:42:44.348Z,22.00
2018-09-29T09:45:13.160Z,22.00
2018-09-29T09:47:41.386Z,22.00
2018-09-29T09:50:09.857Z,21.90
2018-09-29T09:52:38.539Z,21.90
2018-09-29T09:55:06.946Z,21.90
2018-09-29T09:57:35.514Z,21.90
2018-09-29T10:00:03.999Z,21.90
2018-09-29T10:02:38.861Z,22.00
2018-09-29T10:05:07.264Z,22.00
2018-09-29T10:07:36.234Z,22.00
2018-09-29T10:10:04.671Z,21.90
2018-09-29T10:12:32.949Z,22.00
2018-09-29T10:15:01.279Z,22.00
2018-09-29T10:17:29.605Z,22.00
2018-09-29T10:19:57.841Z,22.00
2018-09-29T10:22:26.160Z,21.90
2018-09-29T10:24:55.152Z,22.00
2018-09-29T10:27:23.466Z,22.00
2018-09-29T10:29:51.833Z,22.00
2018-09-29T10:32:20.508Z,22.00
2018-09-29T10:34:48.738Z,22.00
2018-09-29T10:37:17.090Z,22.00
2018-09-29T10:39:45.834Z,22.00
2018-09-29T10:42:14.118Z,22.00
2018-09-29T10:44:42.353Z,22.00
2018-09-29T10:47:12.307Z,22.00
2018-09-29T10:49:40.534Z,22.00
2018-09-29T10:52:08.772Z,22.00
2018-09-29T10:54:38.379Z,22.00
2018-09-29T10:57:06.726Z,22.00
2018-09-29T10:59:34.971Z,22.00
2018-09-29T11:02:03.323Z,22.00
2018-09-29T11:04:33.006Z,22.00
2018-09-29T11:07:01.793Z,22.00
2018-09-29T11:09:30.331Z,22.00
2018-09-29T11:11:58.670Z,22.00
2018-09-29T11:14:27.032Z,22.00
2018-09-29T11:16:55.229Z,22.00
2018-09-29T11:19:23.566Z,22.00
2018-09-29T11:21:52.389Z,22.00
2018-09-29T11:24:20.658Z,22.00
2018-09-29T11:26:48.990Z,22.00
2018-09-29T11:29:17.615Z,22.00
2018-09-29T11:31:45.875Z,22.00
2018-09-29T11:34:14.122Z,22.00
2018-09-29T11:36:42.649Z,22.00
2018-09-29T11:39:12.213Z,22.00
2018-09-29T11:41:40.817Z,22.00
2018-09-29T11:44:09.702Z,21.90
2018-09-29T11:46:37.939Z,22.00
2018-09-29T11:49:06.721Z,22.00
2018-09-29T11:51:35.055Z,22.00
2018-09-29T11:54:03.384Z,22.00
2018-09-29T11:56:31.946Z,22.00
2018-09-29T11:59:00.277Z,22.00
2018-09-29T12:01:28.612Z,22.00
2018-09-29T12:03:57.901Z,22.00
2018-09-29T12:06:26.233Z,22.00
2018-09-29T12:08:54.515Z,22.00
2018-09-29T12:11:23.271Z,22.10
2018-09-29T12:13:51.575Z,22.10
2018-09-29T12:16:19.775Z,22.10
2018-09-29T12:18:49.235Z,22.20
2018-09-29T12:21:17.497Z,22.20
2018-09-29T12:23:45.754Z,22.20
2018-09-29T12:26:14.846Z,22.20
2018-09-29T12:28:43.129Z,22.10
2018-09-29T12:31:11.476Z,22.20
2018-09-29T12:33:39.869Z,22.20
2018-09-29T12:36:08.143Z,22.30
2018-09-29T12:38:36.383Z,22.20
2018-09-29T12:41:05.234Z,22.30
2018-09-29T12:43:33.498Z,22.30
2018-09-29T12:46:01.945Z,22.20
2018-09-29T12:48:31.119Z,22.20
2018-09-29T12:50:59.426Z,22.20
2018-09-29T12:53:27.684Z,22.20
2018-09-29T12:55:56.318Z,22.20
2018-09-29T12:58:24.583Z,22.20
2018-09-29T13:00:52.854Z,22.20
2018-09-29T13:03:21.266Z,22.20
2018-09-29T13:05:49.575Z,22.20
2018-09-29T13:08:18.010Z,22.20
2018-09-29T13:10:47.225Z,22.20
2018-09-29T13:13:16.457Z,22.10
2018-09-29T13:15:44.908Z,22.10
2018-09-29T13:18:13.318Z,22.10
2018-09-29T13:20:41.561Z,22.10
2018-09-29T13:23:09.798Z,22.10
2018-09-29T13:25:38.222Z,22.10
2018-09-29T13:28:06.694Z,22.10
2018-09-29T13:30:34.959Z,22.10
2018-09-29T13:33:03.828Z,22.20
2018-09-29T13:35:32.091Z,22.20
2018-09-29T13:38:00.438Z,22.20
2018-09-29T13:40:29.316Z,22.20
2018-09-29T13:42:57.551Z,22.30
2018-09-29T13:45:25.882Z,22.30
2018-09-29T13:47:54.214Z,22.30
2018-09-29T13:50:22.523Z,22.30
2018-09-29T13:52:50.925Z,22.30
2018-09-29T13:55:20.200Z,22.30
2018-09-29T13:57:48.535Z,22.30
2018-09-29T14:00:16.939Z,22.30
2018-09-29T14:02:45.414Z,22.30
2018-09-29T14:05:15.026Z,22.30
2018-09-29T14:07:43.284Z,22.30
2018-09-29T14:10:11.895Z,22.30
2018-09-29T14:12:40.134Z,22.30
2018-09-29T14:15:08.812Z,22.30
2018-09-29T14:17:37.239Z,22.30
2018-09-29T14:20:06.410Z,22.30
2018-09-29T14:22:34.887Z,22.30
2018-09-29T14:25:03.473Z,22.30
2018-09-29T14:27:31.713Z,22.30
2018-09-29T14:30:00.067Z,22.30
2018-09-29T14:32:28.329Z,22.30
2018-09-29T14:34:56.634Z,22.30
2018-09-29T14:37:24.955Z,22.30
2018-09-29T14:39:53.421Z,22.30
2018-09-29T14:42:21.782Z,22.30
2018-09-29T14:44:50.176Z,22.30
2018-09-29T14:47:18.850Z,22.30
2018-09-29T14:49:47.101Z,22.30
2018-09-29T14:52:15.486Z,22.30
2018-09-29T14:54:44.267Z,22.30
2018-09-29T14:57:12.519Z,22.30
2018-09-29T14:59:40.761Z,22.30
2018-09-29T15:02:09.807Z,22.30
2018-09-29T15:04:38.079Z,22.20
2018-09-29T15:07:06.424Z,22.20
2018-09-29T15:09:35.473Z,22.10
2018-09-29T15:12:03.798Z,22.10
2018-09-29T15:14:32.059Z,22.10
2018-09-29T15:17:00.912Z,22.00
2018-09-29T15:19:29.147Z,22.10
2018-09-29T15:21:57.392Z,22.00
2018-09-29T15:24:26.690Z,22.00
2018-09-29T15:26:55.168Z,22.00
2018-09-29T15:29:23.626Z,22.00
2018-09-29T15:31:52.615Z,22.00
2018-09-29T15:34:20.958Z,22.00
2018-09-29T15:36:49.226Z,22.00
2018-09-29T15:39:17.653Z,22.00
2018-09-29T15:41:45.887Z,22.00
2018-09-29T15:44:14.207Z,22.00
2018-09-29T15:46:43.236Z,22.00
2018-09-29T15:49:11.490Z,22.00
2018-09-29T15:51:39.914Z,22.00
2018-09-29T15:54:08.418Z,22.00
2018-09-29T15:56:36.755Z,21.90
2018-09-29T15:59:05.035Z,21.90
2018-09-29T16:01:33.667Z,21.90
2018-09-29T16:04:02.009Z,22.00
2018-09-29T16:06:30.360Z,22.00
2018-09-29T16:08:59.128Z,22.00
2018-09-29T16:11:27.564Z,21.90
2018-09-29T16:13:55.878Z,21.90
2018-09-29T16:16:24.680Z,21.90
2018-09-29T16:18:53.794Z,21.90
2018-09-29T16:21:22.134Z,21.90
2018-09-29T16:23:50.710Z,21.90
2018-09-29T16:26:19.027Z,21.90
2018-09-29T16:28:47.278Z,21.90
2018-09-29T16:31:16.532Z,21.90
2018-09-29T16:33:44.819Z,21.90
2018-09-29T16:36:13.161Z,21.90
2018-09-29T16:38:41.745Z,21.90
2018-09-29T16:41:10.108Z,21.90
2018-09-29T16:43:38.441Z,21.90
2018-09-29T16:46:07.065Z,21.90
2018-09-29T16:48:35.371Z,21.90
2018-09-29T16:51:03.648Z,21.90
2018-09-29T16:53:32.103Z,21.90
2018-09-29T16:56:00.474Z,21.90
2018-09-29T16:58:28.723Z,21.90
2018-09-29T17:00:57.226Z,21.90
2018-09-29T17:03:28.486Z,21.90
2018-09-29T17:05:56.926Z,22.00
2018-09-29T17:08:25.270Z,22.00
2018-09-29T17:10:53.617Z,22.00
2018-09-29T17:13:22.305Z,22.00
2018-09-29T17:15:50.975Z,22.00
2018-09-29T17:18:19.501Z,22.00
2018-09-29T17:20:48.398Z,22.00
2018-09-29T17:23:16.704Z,22.00
2018-09-29T17:25:44.959Z,22.00
2018-09-29T17:28:13.280Z,22.00
2018-09-29T17:30:41.539Z,22.00
2018-09-29T17:33:09.879Z,22.10
2018-09-29T17:35:38.526Z,22.20
2018-09-29T17:38:06.897Z,22.20
2018-09-29T17:40:35.162Z,22.20
2018-09-29T17:43:03.487Z,22.20
2018-09-29T17:45:31.756Z,22.20
2018-09-29T17:48:00.147Z,22.30
2018-09-29T17:50:28.430Z,22.30
2018-09-29T17:52:56.732Z,22.30
2018-09-29T17:55:25.079Z,22.30
2018-09-29T17:57:54.990Z,22.20
2018-09-29T18:00:23.386Z,22.20
2018-09-29T18:02:51.668Z,22.30
2018-09-29T18:05:20.631Z,22.20
2018-09-29T18:07:49.084Z,22.30
2018-09-29T18:10:17.323Z,22.50
2018-09-29T18:12:45.617Z,22.60
2018-09-29T18:15:13.897Z,22.70
2018-09-29T18:17:42.226Z,22.70
2018-09-29T18:20:12.327Z,22.70
2018-09-29T18:22:40.576Z,22.70
2018-09-29T18:25:08.876Z,22.60
2018-09-29T18:27:37.538Z,22.50
2018-09-29T18:30:06.291Z,22.50
2018-09-29T18:32:34.636Z,22.50
2018-09-29T18:35:03.315Z,22.50
2018-09-29T18:37:31.582Z,22.40
2018-09-29T18:39:59.855Z,22.40
2018-09-29T18:42:28.669Z,22.40
2018-09-29T18:44:57.013Z,22.40
2018-09-29T18:47:25.209Z,22.40
2018-09-29T18:49:53.803Z,22.40
2018-09-29T18:52:22.063Z,22.30
2018-09-29T18:54:50.509Z,22.30
2018-09-29T18:57:19.202Z,22.30
2018-09-29T18:59:47.414Z,22.30
2018-09-29T19:02:15.750Z,22.40
2018-09-29T19:04:45.227Z,22.40
2018-09-29T19:07:13.559Z,22.40
2018-09-29T19:09:41.958Z,22.40
2018-09-29T19:12:10.658Z,22.50
2018-09-29T19:14:38.919Z,22.50
2018-09-29T19:17:07.366Z,22.50
2018-09-29T19:19:36.191Z,22.40
2018-09-29T19:22:05.975Z,22.40
2018-09-29T19:24:34.284Z,22.40
2018-09-29T19:27:03.070Z,22.40
2018-09-29T19:29:31.355Z,22.40
2018-09-29T19:31:59.677Z,22.40
2018-09-29T19:34:28.414Z,22.50
2018-09-29T19:36:56.707Z,22.60
2018-09-29T19:39:25.008Z,22.60
2018-09-29T19:41:54.391Z,22.80
2018-09-29T19:44:22.662Z,22.70
2018-09-29T19:46:51.078Z,22.60
2018-09-29T19:49:20.228Z,22.50
2018-09-29T19:51:48.486Z,22.50
2018-09-29T19:54:16.771Z,22.40
2018-09-29T19:56:45.107Z,22.40
2018-09-29T19:59:13.548Z,22.40
2018-09-29T20:01:41.823Z,22.50
2018-09-29T20:04:11.335Z,22.50
2018-09-29T20:06:39.599Z,22.60
2018-09-29T20:09:08.962Z,22.70
2018-09-29T20:11:37.589Z,22.70
2018-09-29T20:14:06.004Z,22.80
2018-09-29T20:16:34.440Z,22.80
2018-09-29T20:19:02.929Z,22.80
2018-09-29T20:21:31.191Z,22.90
2018-09-29T20:24:00.031Z,22.90
2018-09-29T20:26:28.848Z,22.90
2018-09-29T20:28:57.113Z,22.90
2018-09-29T20:31:25.448Z,22.80
2018-09-29T20:33:54.121Z,22.90
2018-09-29T20:36:22.377Z,22.90
2018-09-29T20:38:50.679Z,22.90
2018-09-29T20:41:19.358Z,22.90
2018-09-29T20:43:47.695Z,22.80
2018-09-29T20:46:15.927Z,22.70
2018-09-29T20:48:45.023Z,22.60
2018-09-29T20:51:13.383Z,22.50
2018-09-29T20:53:41.623Z,22.40
2018-09-29T20:56:10.223Z,22.40
2018-09-29T20:58:38.462Z,22.40
2018-09-29T21:01:06.819Z,22.40
2018-09-29T21:03:35.598Z,22.30
2018-09-29T21:06:03.950Z,22.40
2018-09-29T21:08:32.227Z,22.30
2018-09-29T21:11:00.745Z,22.30
2018-09-29T21:13:29.108Z,22.30
2018-09-29T21:15:57.270Z,22.30
2018-09-29T21:18:26.180Z,22.30
2018-09-29T21:20:54.510Z,22.30
2018-09-29T21:23:22.771Z,22.30
2018-09-29T21:25:52.347Z,22.20
2018-09-29T21:28:20.763Z,22.20
2018-09-29T21:30:48.992Z,22.30
2018-09-29T21:33:17.335Z,22.20
2018-09-29T21:35:45.589Z,22.20
2018-09-29T21:38:13.994Z,22.20
2018-09-29T21:40:42.515Z,22.10
2018-09-29T21:43:10.762Z,22.10
2018-09-29T21:45:39.073Z,22.10
2018-09-29T21:48:07.978Z,22.10
2018-09-29T21:50:36.235Z,22.10
2018-09-29T21:53:04.567Z,22.00
2018-09-29T21:55:32.845Z,22.00
2018-09-29T21:58:01.120Z,22.00
2018-09-29T22:00:34.975Z,22.00
2018-09-29T22:03:03.292Z,22.00
2018-09-29T22:05:31.546Z,22.00
2018-09-29T22:08:00.274Z,22.00
2018-09-29T22:10:28.514Z,22.00
2018-09-29T22:12:56.754Z,22.00
2018-09-29T22:15:25.047Z,22.00
2018-09-29T22:17:53.317Z,22.00
2018-09-29T22:20:21.586Z,22.00
2018-09-29T22:22:50.178Z,22.00
2018-09-29T22:25:18.447Z,22.00
2018-09-29T22:27:47.898Z,22.00
2018-09-29T22:30:16.666Z,22.00
2018-09-29T22:32:45.000Z,22.00
2018-09-29T22:35:13.394Z,22.00
2018-09-29T22:37:41.796Z,22.00
2018-09-29T22:40:10.092Z,22.00
2018-09-29T22:42:38.335Z,22.00
2018-09-29T22:45:07.031Z,22.00
2018-09-29T22:47:35.293Z,21.90
2018-09-29T22:50:03.554Z,21.90
2018-09-29T22:52:32.771Z,22.00
2018-09-29T22:55:00.989Z,22.00
2018-09-29T22:57:29.342Z,21.90
2018-09-29T22:59:57.634Z,21.90
2018-09-29T23:02:25.880Z,21.90
2018-09-29T23:04:55.503Z,21.90
2018-09-29T23:07:23.746Z,21.90
2018-09-29T23:09:51.986Z,21.90
2018-09-29T23:12:20.526Z,21.90
2018-09-29T23:14:48.786Z,21.90
2018-09-29T23:17:17.029Z,21.90
2018-09-29T23:19:45.404Z,21.90
2018-09-29T23:22:13.707Z,21.90
2018-09-29T23:24:42.028Z,21.90
2018-09-29T23:27:11.009Z,21.90
2018-09-29T23:29:39.325Z,21.90
2018-09-29T23:32:07.588Z,21.90
2018-09-29T23:34:36.555Z,21.90
2018-09-29T23:37:04.832Z,21.90
2018-09-29T23:39:33.164Z,21.90
2018-09-29T23:42:01.587Z,21.90
2018-09-29T23:44:29.898Z,21.80
2018-09-29T23:46:58.157Z,21.80
2018-09-29T23:49:27.250Z,21.80
2018-09-29T23:51:55.477Z,21.80
2018-09-29T23:54:23.869Z,21.80
2018-09-29T23:56:52.302Z,21.80
2018-09-29T23:59:20.633Z,21.80
